sensor_id;sensor_type;location;lat;lon;timestamp;P1;durP1;ratioP1;P2;durP2;ratioP2
26271;SDS011;13997;48.902;12.472;2023-04-01T00:00:55;6.05;;;1.33;;
26271;SDS011;13997;48.902;12.472;2023-04-01T00:03:24;5.85;;;1.27;;
26271;SDS011;13997;48.902;12.472;2023-04-01T00:05:51;5.22;;;1.13;;
26271;SDS011;13997;48.902;12.472;2023-04-01T00:08:18;6.45;;;1.58;;
26271;SDS011;13997;48.902;12.472;2023-04-01T00:10:44;8.20;;;1.42;;
26271;SDS011;13997;48.902;12.472;2023-04-01T00:13:10;4.22;;;1.33;;
26271;SDS011;13997;48.902;12.472;2023-04-01T00:15:35;6.57;;;1.27;;
26271;SDS011;13997;48.902;12.472;2023-04-01T00:18:02;5.65;;;1.30;;
26271;SDS011;13997;48.902;12.472;2023-04-01T00:20:28;2.58;;;1.05;;
26271;SDS011;13997;48.902;12.472;2023-04-01T00:22:54;5.45;;;1.00;;
26271;SDS011;13997;48.902;12.472;2023-04-01T00:25:20;8.80;;;1.20;;
26271;SDS011;13997;48.902;12.472;2023-04-01T00:27:46;5.38;;;1.15;;
26271;SDS011;13997;48.902;12.472;2023-04-01T00:30:12;6.80;;;1.35;;
26271;SDS011;13997;48.902;12.472;2023-04-01T00:32:37;5.82;;;1.42;;
26271;SDS011;13997;48.902;12.472;2023-04-01T00:35:03;5.35;;;1.05;;
26271;SDS011;13997;48.902;12.472;2023-04-01T00:37:29;4.13;;;1.02;;
26271;SDS011;13997;48.902;12.472;2023-04-01T00:39:55;7.05;;;1.27;;
26271;SDS011;13997;48.902;12.472;2023-04-01T00:42:22;4.38;;;1.17;;
26271;SDS011;13997;48.902;12.472;2023-04-01T00:44:50;6.78;;;1.40;;
26271;SDS011;13997;48.902;12.472;2023-04-01T00:47:17;7.32;;;1.00;;
26271;SDS011;13997;48.902;12.472;2023-04-01T00:49:43;5.43;;;1.20;;
26271;SDS011;13997;48.902;12.472;2023-04-01T00:52:12;3.63;;;0.90;;
26271;SDS011;13997;48.902;12.472;2023-04-01T00:54:42;5.03;;;1.25;;
26271;SDS011;13997;48.902;12.472;2023-04-01T00:59:43;4.28;;;1.10;;
26271;SDS011;13997;48.902;12.472;2023-04-01T01:02:13;3.55;;;1.08;;
26271;SDS011;13997;48.902;12.472;2023-04-01T01:04:40;4.53;;;1.80;;
26271;SDS011;13997;48.902;12.472;2023-04-01T01:12:25;3.50;;;0.90;;
26271;SDS011;13997;48.902;12.472;2023-04-01T01:15:12;6.75;;;1.58;;
26271;SDS011;13997;48.902;12.472;2023-04-01T01:18:03;2.25;;;0.75;;
26271;SDS011;13997;48.902;12.472;2023-04-01T01:25:58;2.15;;;0.93;;
26271;SDS011;13997;48.902;12.472;2023-04-01T01:31:32;2.63;;;0.60;;
26271;SDS011;13997;48.902;12.472;2023-04-01T01:34:15;2.83;;;0.73;;
26271;SDS011;13997;48.902;12.472;2023-04-01T01:36:43;7.25;;;0.98;;
26271;SDS011;13997;48.902;12.472;2023-04-01T01:39:10;3.17;;;0.80;;
26271;SDS011;13997;48.902;12.472;2023-04-01T01:41:39;1.05;;;0.60;;
26271;SDS011;13997;48.902;12.472;2023-04-01T01:44:08;7.75;;;2.35;;
26271;SDS011;13997;48.902;12.472;2023-04-01T01:46:36;3.78;;;0.80;;
26271;SDS011;13997;48.902;12.472;2023-04-01T01:49:04;3.20;;;0.90;;
26271;SDS011;13997;48.902;12.472;2023-04-01T01:51:35;0.90;;;0.70;;
26271;SDS011;13997;48.902;12.472;2023-04-01T01:54:00;3.67;;;1.00;;
26271;SDS011;13997;48.902;12.472;2023-04-01T01:56:26;3.03;;;0.60;;
26271;SDS011;13997;48.902;12.472;2023-04-01T01:58:56;1.42;;;0.70;;
26271;SDS011;13997;48.902;12.472;2023-04-01T02:01:26;1.38;;;0.70;;
26271;SDS011;13997;48.902;12.472;2023-04-01T02:03:55;0.93;;;0.60;;
26271;SDS011;13997;48.902;12.472;2023-04-01T02:06:24;3.67;;;0.70;;
26271;SDS011;13997;48.902;12.472;2023-04-01T02:09:03;2.43;;;0.70;;
26271;SDS011;13997;48.902;12.472;2023-04-01T02:14:08;4.72;;;1.70;;
26271;SDS011;13997;48.902;12.472;2023-04-01T02:16:58;1.08;;;0.55;;
26271;SDS011;13997;48.902;12.472;2023-04-01T02:19:32;2.85;;;1.17;;
26271;SDS011;13997;48.902;12.472;2023-04-01T02:22:05;4.10;;;0.82;;
26271;SDS011;13997;48.902;12.472;2023-04-01T02:24:35;4.20;;;1.00;;
26271;SDS011;13997;48.902;12.472;2023-04-01T02:27:03;4.63;;;0.90;;
26271;SDS011;13997;48.902;12.472;2023-04-01T02:29:29;1.23;;;0.70;;
26271;SDS011;13997;48.902;12.472;2023-04-01T02:31:55;3.88;;;0.90;;
26271;SDS011;13997;48.902;12.472;2023-04-01T02:34:22;2.90;;;0.70;;
26271;SDS011;13997;48.902;12.472;2023-04-01T02:36:49;2.90;;;0.90;;
26271;SDS011;13997;48.902;12.472;2023-04-01T02:39:15;3.78;;;0.80;;
26271;SDS011;13997;48.902;12.472;2023-04-01T02:41:42;1.90;;;0.70;;
26271;SDS011;13997;48.902;12.472;2023-04-01T02:44:09;2.78;;;0.70;;
26271;SDS011;13997;48.902;12.472;2023-04-01T02:46:36;2.45;;;0.68;;
26271;SDS011;13997;48.902;12.472;2023-04-01T02:49:01;4.85;;;0.85;;
26271;SDS011;13997;48.902;12.472;2023-04-01T02:51:27;5.13;;;1.20;;
26271;SDS011;13997;48.902;12.472;2023-04-01T02:53:53;4.32;;;0.80;;
26271;SDS011;13997;48.902;12.472;2023-04-01T02:56:18;1.75;;;0.75;;
26271;SDS011;13997;48.902;12.472;2023-04-01T02:58:45;1.67;;;1.00;;
26271;SDS011;13997;48.902;12.472;2023-04-01T03:01:11;4.82;;;1.17;;
26271;SDS011;13997;48.902;12.472;2023-04-01T03:03:37;3.25;;;0.77;;
26271;SDS011;13997;48.902;12.472;2023-04-01T03:06:06;3.30;;;0.98;;
26271;SDS011;13997;48.902;12.472;2023-04-01T03:08:32;2.78;;;1.00;;
26271;SDS011;13997;48.902;12.472;2023-04-01T03:10:58;6.78;;;1.27;;
26271;SDS011;13997;48.902;12.472;2023-04-01T03:13:23;2.53;;;0.80;;
26271;SDS011;13997;48.902;12.472;2023-04-01T03:15:49;3.80;;;0.93;;
26271;SDS011;13997;48.902;12.472;2023-04-01T03:18:15;4.00;;;0.98;;
26271;SDS011;13997;48.902;12.472;2023-04-01T03:20:40;4.25;;;1.05;;
26271;SDS011;13997;48.902;12.472;2023-04-01T03:23:07;3.10;;;0.85;;
26271;SDS011;13997;48.902;12.472;2023-04-01T03:25:32;3.22;;;0.93;;
26271;SDS011;13997;48.902;12.472;2023-04-01T03:27:58;3.90;;;1.00;;
26271;SDS011;13997;48.902;12.472;2023-04-01T03:30:24;3.50;;;1.00;;
26271;SDS011;13997;48.902;12.472;2023-04-01T03:32:50;2.75;;;0.93;;
26271;SDS011;13997;48.902;12.472;2023-04-01T03:35:16;3.45;;;0.90;;
26271;SDS011;13997;48.902;12.472;2023-04-01T03:37:42;4.45;;;0.98;;
26271;SDS011;13997;48.902;12.472;2023-04-01T03:40:08;3.58;;;0.80;;
26271;SDS011;13997;48.902;12.472;2023-04-01T03:42:35;5.43;;;1.10;;
26271;SDS011;13997;48.902;12.472;2023-04-01T03:45:00;5.05;;;1.23;;
26271;SDS011;13997;48.902;12.472;2023-04-01T03:47:27;5.35;;;1.02;;
26271;SDS011;13997;48.902;12.472;2023-04-01T03:49:53;3.92;;;1.00;;
26271;SDS011;13997;48.902;12.472;2023-04-01T03:52:18;3.08;;;0.90;;
26271;SDS011;13997;48.902;12.472;2023-04-01T03:54:44;5.22;;;1.27;;
26271;SDS011;13997;48.902;12.472;2023-04-01T03:57:09;4.00;;;0.90;;
26271;SDS011;13997;48.902;12.472;2023-04-01T03:59:35;2.25;;;0.73;;
26271;SDS011;13997;48.902;12.472;2023-04-01T04:02:01;3.95;;;0.80;;
26271;SDS011;13997;48.902;12.472;2023-04-01T04:04:26;4.85;;;0.90;;
26271;SDS011;13997;48.902;12.472;2023-04-01T04:06:53;3.47;;;0.75;;
26271;SDS011;13997;48.902;12.472;2023-04-01T04:09:19;2.00;;;0.70;;
26271;SDS011;13997;48.902;12.472;2023-04-01T04:11:44;6.20;;;1.10;;
26271;SDS011;13997;48.902;12.472;2023-04-01T04:14:10;2.83;;;0.70;;
26271;SDS011;13997;48.902;12.472;2023-04-01T04:16:36;6.28;;;1.00;;
26271;SDS011;13997;48.902;12.472;2023-04-01T04:19:02;3.45;;;0.88;;
26271;SDS011;13997;48.902;12.472;2023-04-01T04:21:28;5.40;;;0.95;;
26271;SDS011;13997;48.902;12.472;2023-04-01T04:23:53;2.50;;;0.80;;
26271;SDS011;13997;48.902;12.472;2023-04-01T04:26:19;1.60;;;0.88;;
26271;SDS011;13997;48.902;12.472;2023-04-01T04:28:45;2.20;;;0.70;;
26271;SDS011;13997;48.902;12.472;2023-04-01T04:31:10;2.30;;;0.80;;
26271;SDS011;13997;48.902;12.472;2023-04-01T04:33:36;3.45;;;0.90;;
26271;SDS011;13997;48.902;12.472;2023-04-01T04:36:02;1.42;;;0.75;;
26271;SDS011;13997;48.902;12.472;2023-04-01T04:38:29;4.57;;;1.10;;
26271;SDS011;13997;48.902;12.472;2023-04-01T04:40:55;5.93;;;0.90;;
26271;SDS011;13997;48.902;12.472;2023-04-01T04:43:21;1.35;;;0.70;;
26271;SDS011;13997;48.902;12.472;2023-04-01T04:45:46;3.50;;;0.82;;
26271;SDS011;13997;48.902;12.472;2023-04-01T04:48:14;3.40;;;1.00;;
26271;SDS011;13997;48.902;12.472;2023-04-01T04:50:52;4.40;;;0.95;;
26271;SDS011;13997;48.902;12.472;2023-04-01T04:53:18;1.38;;;0.60;;
26271;SDS011;13997;48.902;12.472;2023-04-01T04:55:45;6.32;;;0.90;;
26271;SDS011;13997;48.902;12.472;2023-04-01T04:58:11;1.95;;;0.70;;
26271;SDS011;13997;48.902;12.472;2023-04-01T05:00:37;3.05;;;0.90;;
26271;SDS011;13997;48.902;12.472;2023-04-01T05:03:03;1.80;;;0.70;;
26271;SDS011;13997;48.902;12.472;2023-04-01T05:05:28;4.93;;;1.05;;
26271;SDS011;13997;48.902;12.472;2023-04-01T05:07:54;4.57;;;1.05;;
26271;SDS011;13997;48.902;12.472;2023-04-01T05:10:19;5.03;;;0.90;;
26271;SDS011;13997;48.902;12.472;2023-04-01T05:12:45;2.13;;;1.00;;
26271;SDS011;13997;48.902;12.472;2023-04-01T05:15:11;31.67;;;11.93;;
26271;SDS011;13997;48.902;12.472;2023-04-01T05:17:37;228.63;;;76.78;;
26271;SDS011;13997;48.902;12.472;2023-04-01T05:20:02;163.77;;;53.97;;
26271;SDS011;13997;48.902;12.472;2023-04-01T05:22:29;258.58;;;79.63;;
26271;SDS011;13997;48.902;12.472;2023-04-01T05:24:54;400.98;;;138.57;;
26271;SDS011;13997;48.902;12.472;2023-04-01T05:27:20;269.55;;;97.45;;
26271;SDS011;13997;48.902;12.472;2023-04-01T05:29:46;194.95;;;79.20;;
26271;SDS011;13997;48.902;12.472;2023-04-01T05:32:12;195.48;;;90.18;;
26271;SDS011;13997;48.902;12.472;2023-04-01T05:34:37;103.18;;;49.55;;
26271;SDS011;13997;48.902;12.472;2023-04-01T05:37:03;44.97;;;24.55;;
26271;SDS011;13997;48.902;12.472;2023-04-01T05:39:28;92.68;;;51.25;;
26271;SDS011;13997;48.902;12.472;2023-04-01T05:41:54;138.27;;;80.47;;
26271;SDS011;13997;48.902;12.472;2023-04-01T05:44:19;101.40;;;60.58;;
26271;SDS011;13997;48.902;12.472;2023-04-01T05:46:45;17.33;;;11.20;;
26271;SDS011;13997;48.902;12.472;2023-04-01T05:49:11;27.70;;;22.90;;
26271;SDS011;13997;48.902;12.472;2023-04-01T05:51:36;8.95;;;6.72;;
26271;SDS011;13997;48.902;12.472;2023-04-01T05:54:03;5.32;;;2.40;;
26271;SDS011;13997;48.902;12.472;2023-04-01T05:56:30;2.90;;;1.58;;
26271;SDS011;13997;48.902;12.472;2023-04-01T05:58:56;1.80;;;0.70;;
26271;SDS011;13997;48.902;12.472;2023-04-01T06:01:21;1.58;;;0.60;;
26271;SDS011;13997;48.902;12.472;2023-04-01T06:03:47;2.83;;;0.60;;
26271;SDS011;13997;48.902;12.472;2023-04-01T06:06:31;3.20;;;0.70;;
26271;SDS011;13997;48.902;12.472;2023-04-01T06:08:58;2.38;;;0.90;;
26271;SDS011;13997;48.902;12.472;2023-04-01T06:14:40;1.73;;;0.70;;
26271;SDS011;13997;48.902;12.472;2023-04-01T06:25:55;0.60;;;0.50;;
26271;SDS011;13997;48.902;12.472;2023-04-01T06:31:44;5.63;;;0.68;;
26271;SDS011;13997;48.902;12.472;2023-04-01T07:05:07;6.78;;;2.30;;
26271;SDS011;13997;48.902;12.472;2023-04-01T07:07:49;1.80;;;1.00;;
26271;SDS011;13997;48.902;12.472;2023-04-01T07:10:33;2.42;;;0.70;;
26271;SDS011;13997;48.902;12.472;2023-04-01T07:13:13;1.60;;;0.70;;
26271;SDS011;13997;48.902;12.472;2023-04-01T07:21:34;2.70;;;0.93;;
26271;SDS011;13997;48.902;12.472;2023-04-01T07:24:05;1.38;;;0.60;;
26271;SDS011;13997;48.902;12.472;2023-04-01T07:26:37;0.55;;;0.52;;
26271;SDS011;13997;48.902;12.472;2023-04-01T07:29:05;3.75;;;0.70;;
26271;SDS011;13997;48.902;12.472;2023-04-01T07:34:19;0.77;;;0.50;;
26271;SDS011;13997;48.902;12.472;2023-04-01T07:37:06;1.70;;;0.88;;
26271;SDS011;13997;48.902;12.472;2023-04-01T07:39:50;3.22;;;0.63;;
26271;SDS011;13997;48.902;12.472;2023-04-01T07:42:40;2.88;;;1.05;;
26271;SDS011;13997;48.902;12.472;2023-04-01T07:54:53;3.17;;;0.60;;
26271;SDS011;13997;48.902;12.472;2023-04-01T07:59:53;6.32;;;3.53;;
26271;SDS011;13997;48.902;12.472;2023-04-01T08:02:31;3.22;;;0.93;;
26271;SDS011;13997;48.902;12.472;2023-04-01T08:13:25;1.65;;;0.70;;
26271;SDS011;13997;48.902;12.472;2023-04-01T08:21:52;3.40;;;1.50;;
26271;SDS011;13997;48.902;12.472;2023-04-01T08:24:27;2.72;;;0.80;;
26271;SDS011;13997;48.902;12.472;2023-04-01T08:27:01;3.47;;;1.25;;
26271;SDS011;13997;48.902;12.472;2023-04-01T08:32:28;0.77;;;0.40;;
26271;SDS011;13997;48.902;12.472;2023-04-01T08:35:14;3.25;;;0.93;;
26271;SDS011;13997;48.902;12.472;2023-04-01T08:37:49;3.72;;;0.60;;
26271;SDS011;13997;48.902;12.472;2023-04-01T08:43:36;1.75;;;0.60;;
26271;SDS011;13997;48.902;12.472;2023-04-01T08:49:18;1.13;;;0.50;;
26271;SDS011;13997;48.902;12.472;2023-04-01T08:52:00;1.23;;;0.60;;
26271;SDS011;13997;48.902;12.472;2023-04-01T09:06:21;2.85;;;0.70;;
26271;SDS011;13997;48.902;12.472;2023-04-01T09:09:05;2.90;;;0.95;;
26271;SDS011;13997;48.902;12.472;2023-04-01T09:26:09;2.15;;;0.80;;
26271;SDS011;13997;48.902;12.472;2023-04-01T09:35:07;2.13;;;0.88;;
26271;SDS011;13997;48.902;12.472;2023-04-01T09:45:47;2.58;;;0.85;;
26271;SDS011;13997;48.902;12.472;2023-04-01T09:48:20;1.40;;;0.60;;
26271;SDS011;13997;48.902;12.472;2023-04-01T09:54:19;1.80;;;0.70;;
26271;SDS011;13997;48.902;12.472;2023-04-01T11:49:25;1.08;;;0.60;;
26271;SDS011;13997;48.902;12.472;2023-04-01T11:52:26;1.70;;;0.65;;
26271;SDS011;13997;48.902;12.472;2023-04-01T11:55:33;1.52;;;0.65;;
26271;SDS011;13997;48.902;12.472;2023-04-01T12:01:07;0.98;;;0.47;;
26271;SDS011;13997;48.902;12.472;2023-04-01T12:20:20;1.27;;;0.40;;
26271;SDS011;13997;48.902;12.472;2023-04-01T12:22:59;1.17;;;0.75;;
26271;SDS011;13997;48.902;12.472;2023-04-01T12:28:19;1.90;;;0.80;;
26271;SDS011;13997;48.902;12.472;2023-04-01T12:30:53;1.30;;;0.60;;
26271;SDS011;13997;48.902;12.472;2023-04-01T12:36:37;1.08;;;0.50;;
26271;SDS011;13997;48.902;12.472;2023-04-01T12:42:05;2.70;;;0.80;;
26271;SDS011;13997;48.902;12.472;2023-04-01T12:44:49;0.82;;;0.57;;
26271;SDS011;13997;48.902;12.472;2023-04-01T12:55:50;3.88;;;0.82;;
26271;SDS011;13997;48.902;12.472;2023-04-01T13:15:51;0.75;;;0.40;;
26271;SDS011;13997;48.902;12.472;2023-04-01T13:18:28;0.70;;;0.50;;
26271;SDS011;13997;48.902;12.472;2023-04-01T13:23:57;2.05;;;0.63;;
26271;SDS011;13997;48.902;12.472;2023-04-01T13:26:36;4.25;;;1.73;;
26271;SDS011;13997;48.902;12.472;2023-04-01T13:29:23;2.13;;;1.08;;
26271;SDS011;13997;48.902;12.472;2023-04-01T13:43:07;1.13;;;0.80;;
26271;SDS011;13997;48.902;12.472;2023-04-01T14:02:44;2.05;;;1.52;;
26271;SDS011;13997;48.902;12.472;2023-04-01T14:07:41;2.38;;;0.95;;
26271;SDS011;13997;48.902;12.472;2023-04-01T14:13:17;1.65;;;0.57;;
26271;SDS011;13997;48.902;12.472;2023-04-01T14:19:11;1.52;;;0.60;;
26271;SDS011;13997;48.902;12.472;2023-04-01T14:22:05;2.67;;;0.60;;
26271;SDS011;13997;48.902;12.472;2023-04-01T14:47:56;2.25;;;0.70;;
26271;SDS011;13997;48.902;12.472;2023-04-01T14:50:49;0.60;;;0.60;;
26271;SDS011;13997;48.902;12.472;2023-04-01T14:55:50;1.00;;;0.70;;
26271;SDS011;13997;48.902;12.472;2023-04-01T14:58:24;1.20;;;0.80;;
26271;SDS011;13997;48.902;12.472;2023-04-01T15:03:52;2.50;;;1.90;;
26271;SDS011;13997;48.902;12.472;2023-04-01T15:09:28;3.33;;;0.98;;
26271;SDS011;13997;48.902;12.472;2023-04-01T15:53:57;3.95;;;2.40;;
26271;SDS011;13997;48.902;12.472;2023-04-01T15:57:02;1.20;;;1.10;;
26271;SDS011;13997;48.902;12.472;2023-04-01T16:02:49;2.88;;;1.50;;
26271;SDS011;13997;48.902;12.472;2023-04-01T16:14:07;1.00;;;0.80;;
26271;SDS011;13997;48.902;12.472;2023-04-01T16:19:19;2.15;;;0.90;;
26271;SDS011;13997;48.902;12.472;2023-04-01T16:22:19;2.58;;;0.80;;
26271;SDS011;13997;48.902;12.472;2023-04-01T16:25:05;1.30;;;0.90;;
26271;SDS011;13997;48.902;12.472;2023-04-01T16:33:22;2.00;;;1.10;;
26271;SDS011;13997;48.902;12.472;2023-04-01T16:39:06;1.65;;;1.25;;
26271;SDS011;13997;48.902;12.472;2023-04-01T16:41:38;5.03;;;1.60;;
26271;SDS011;13997;48.902;12.472;2023-04-01T16:54:43;1.60;;;1.10;;
26271;SDS011;13997;48.902;12.472;2023-04-01T17:00:29;1.75;;;1.00;;
26271;SDS011;13997;48.902;12.472;2023-04-01T17:11:56;3.30;;;1.58;;
26271;SDS011;13997;48.902;12.472;2023-04-01T17:17:05;4.72;;;2.30;;
26271;SDS011;13997;48.902;12.472;2023-04-01T17:22:32;2.75;;;1.60;;
26271;SDS011;13997;48.902;12.472;2023-04-01T17:38:50;2.50;;;1.10;;
26271;SDS011;13997;48.902;12.472;2023-04-01T17:41:36;1.15;;;0.80;;
26271;SDS011;13997;48.902;12.472;2023-04-01T17:44:22;4.40;;;0.93;;
26271;SDS011;13997;48.902;12.472;2023-04-01T17:55:37;1.60;;;1.05;;
26271;SDS011;13997;48.902;12.472;2023-04-01T18:00:48;2.65;;;1.60;;
26271;SDS011;13997;48.902;12.472;2023-04-01T18:11:34;2.13;;;1.40;;
26271;SDS011;13997;48.902;12.472;2023-04-01T18:17:12;3.13;;;1.55;;
26271;SDS011;13997;48.902;12.472;2023-04-01T18:26:02;1.70;;;1.40;;
26271;SDS011;13997;48.902;12.472;2023-04-01T18:28:37;2.67;;;1.23;;
26271;SDS011;13997;48.902;12.472;2023-04-01T18:31:14;1.65;;;1.13;;
26271;SDS011;13997;48.902;12.472;2023-04-01T18:36:46;2.08;;;1.45;;
26271;SDS011;13997;48.902;12.472;2023-04-01T18:39:30;1.90;;;1.30;;
26271;SDS011;13997;48.902;12.472;2023-04-01T18:42:03;1.92;;;1.05;;
26271;SDS011;13997;48.902;12.472;2023-04-01T18:45:01;3.40;;;1.48;;
26271;SDS011;13997;48.902;12.472;2023-04-01T18:47:44;4.03;;;1.55;;
26271;SDS011;13997;48.902;12.472;2023-04-01T18:53:30;1.55;;;1.17;;
26271;SDS011;13997;48.902;12.472;2023-04-01T18:56:11;1.75;;;1.25;;
26271;SDS011;13997;48.902;12.472;2023-04-01T18:58:59;4.22;;;1.42;;
26271;SDS011;13997;48.902;12.472;2023-04-01T19:04:43;4.57;;;1.30;;
26271;SDS011;13997;48.902;12.472;2023-04-01T19:08:12;2.55;;;1.20;;
26271;SDS011;13997;48.902;12.472;2023-04-01T19:10:11;1.00;;;0.90;;
26271;SDS011;13997;48.902;12.472;2023-04-01T19:12:57;2.08;;;1.02;;
26271;SDS011;13997;48.902;12.472;2023-04-01T19:21:06;2.00;;;1.30;;
26271;SDS011;13997;48.902;12.472;2023-04-01T19:24:00;2.85;;;1.20;;
26271;SDS011;13997;48.902;12.472;2023-04-01T19:26:39;1.88;;;1.00;;
26271;SDS011;13997;48.902;12.472;2023-04-01T19:29:48;2.72;;;0.80;;
26271;SDS011;13997;48.902;12.472;2023-04-01T19:32:37;3.75;;;1.10;;
26271;SDS011;13997;48.902;12.472;2023-04-01T19:38:37;1.05;;;0.82;;
26271;SDS011;13997;48.902;12.472;2023-04-01T19:46:48;0.85;;;0.60;;
26271;SDS011;13997;48.902;12.472;2023-04-01T19:50:02;3.50;;;0.70;;
26271;SDS011;13997;48.902;12.472;2023-04-01T19:52:26;1.15;;;0.77;;
26271;SDS011;13997;48.902;12.472;2023-04-01T19:55:02;1.95;;;0.70;;
26271;SDS011;13997;48.902;12.472;2023-04-01T20:07:25;1.95;;;1.27;;
26271;SDS011;13997;48.902;12.472;2023-04-01T20:09:59;3.30;;;1.30;;
26271;SDS011;13997;48.902;12.472;2023-04-01T20:15:43;1.65;;;0.90;;
26271;SDS011;13997;48.902;12.472;2023-04-01T20:18:15;2.15;;;1.10;;
26271;SDS011;13997;48.902;12.472;2023-04-01T20:20:54;1.98;;;1.08;;
26271;SDS011;13997;48.902;12.472;2023-04-01T20:23:38;2.30;;;1.02;;
26271;SDS011;13997;48.902;12.472;2023-04-01T20:26:08;2.63;;;1.08;;
26271;SDS011;13997;48.902;12.472;2023-04-01T20:31:15;3.33;;;1.00;;
26271;SDS011;13997;48.902;12.472;2023-04-01T20:33:58;3.40;;;1.30;;
26271;SDS011;13997;48.902;12.472;2023-04-01T20:36:38;2.08;;;1.00;;
26271;SDS011;13997;48.902;12.472;2023-04-01T20:45:04;3.33;;;1.15;;
26271;SDS011;13997;48.902;12.472;2023-04-01T20:47:55;2.00;;;1.00;;
26271;SDS011;13997;48.902;12.472;2023-04-01T20:53:39;3.17;;;1.10;;
26271;SDS011;13997;48.902;12.472;2023-04-01T21:02:42;2.00;;;1.00;;
26271;SDS011;13997;48.902;12.472;2023-04-01T21:41:56;9.25;;;4.05;;
26271;SDS011;13997;48.902;12.472;2023-04-01T21:47:19;8.80;;;4.38;;
26271;SDS011;13997;48.902;12.472;2023-04-01T22:04:33;3.33;;;1.83;;
26271;SDS011;13997;48.902;12.472;2023-04-01T22:07:17;6.57;;;1.60;;
26271;SDS011;13997;48.902;12.472;2023-04-01T22:09:50;5.13;;;1.27;;
26271;SDS011;13997;48.902;12.472;2023-04-01T22:24:32;5.63;;;1.00;;
26271;SDS011;13997;48.902;12.472;2023-04-01T22:27:01;3.75;;;0.98;;
26271;SDS011;13997;48.902;12.472;2023-04-01T22:32:55;1.95;;;0.77;;
26271;SDS011;13997;48.902;12.472;2023-04-01T22:38:15;1.95;;;0.80;;
26271;SDS011;13997;48.902;12.472;2023-04-01T22:43:54;3.30;;;0.95;;
26271;SDS011;13997;48.902;12.472;2023-04-01T22:51:41;3.42;;;0.88;;
26271;SDS011;13997;48.902;12.472;2023-04-01T22:56:52;2.90;;;1.15;;
26271;SDS011;13997;48.902;12.472;2023-04-01T22:59:35;1.40;;;0.90;;
26271;SDS011;13997;48.902;12.472;2023-04-01T23:02:28;2.03;;;0.90;;
26271;SDS011;13997;48.902;12.472;2023-04-01T23:04:59;2.30;;;1.00;;
26271;SDS011;13997;48.902;12.472;2023-04-01T23:10:20;3.90;;;0.90;;
26271;SDS011;13997;48.902;12.472;2023-04-01T23:12:51;5.28;;;1.20;;
26271;SDS011;13997;48.902;12.472;2023-04-01T23:15:18;7.70;;;1.33;;
26271;SDS011;13997;48.902;12.472;2023-04-01T23:25:53;4.20;;;0.75;;
26271;SDS011;13997;48.902;12.472;2023-04-01T23:28:32;3.45;;;0.80;;
26271;SDS011;13997;48.902;12.472;2023-04-01T23:31:24;2.03;;;0.90;;
26271;SDS011;13997;48.902;12.472;2023-04-01T23:36:38;1.00;;;0.80;;
26271;SDS011;13997;48.902;12.472;2023-04-01T23:39:49;2.28;;;0.90;;
26271;SDS011;13997;48.902;12.472;2023-04-01T23:42:00;1.77;;;0.80;;
26271;SDS011;13997;48.902;12.472;2023-04-01T23:44:51;3.80;;;1.00;;
26271;SDS011;13997;48.902;12.472;2023-04-01T23:47:21;3.42;;;0.70;;
26271;SDS011;13997;48.902;12.472;2023-04-01T23:49:56;2.65;;;0.98;;
26271;SDS011;13997;48.902;12.472;2023-04-01T23:52:27;2.65;;;0.90;;
26271;SDS011;13997;48.902;12.472;2023-04-01T23:54:56;2.80;;;0.93;;
26271;SDS011;13997;48.902;12.472;2023-04-01T23:57:32;2.13;;;0.90;;
